Time;durP1;ratioP1;P1;durP2;ratioP2;P2;SDS_P1;SDS_P2;PMS_P1;PMS_P2;Temp;Humidity;BMP_temperature;BMP_pressure;BME280_temperature;BME280_humidity;BME280_pressure;Samples;Min_cycle;Max_cycle;Signal;HPM_P1;HPM_P2
2023/02/18 00:02:20;;;;;;;31.25;11.73;;;;;;;-143.48;100.00;118439.88;5037812;28;20376;-34
2023/02/18 00:04:45;;;;;;;51.38;14.02;;;;;;;-143.48;100.00;118439.88;5037443;28;20117;-33
2023/02/18 00:07:11;;;;;;;42.63;12.85;;;;;;;-143.48;100.00;118439.88;5037090;28;20028;-36
2023/02/18 00:09:37;;;;;;;39.65;12.52;;;;;;;-143.48;100.00;118439.88;5037092;28;20036;-35
2023/02/18 00:12:03;;;;;;;44.65;13.15;;;;;;;-143.48;100.00;118439.88;5037630;28;20067;-35
2023/02/18 00:14:28;;;;;;;44.15;12.50;;;;;;;-143.48;100.00;118439.88;5037304;28;20541;-34
2023/02/18 00:16:53;;;;;;;42.35;12.13;;;;;;;-143.48;100.00;118439.88;5019252;28;20396;-33
2023/02/18 00:19:19;;;;;;;40.85;12.23;;;;;;;-143.48;100.00;118439.88;5037202;28;20063;-36
2023/02/18 00:21:45;;;;;;;50.85;13.60;;;;;;;-143.48;100.00;118439.88;5036897;28;20162;-36
2023/02/18 00:24:16;;;;;;;43.63;12.30;;;;;;;-143.48;100.00;118439.88;5036800;28;20037;-34
2023/02/18 00:26:41;;;;;;;43.33;12.73;;;;;;;-143.48;100.00;118439.88;5036968;28;20033;-33
2023/02/18 00:29:07;;;;;;;42.65;12.65;;;;;;;-143.48;100.00;118439.88;5036745;28;20108;-35
2023/02/18 00:31:34;;;;;;;39.05;13.02;;;;;;;-143.48;100.00;118439.88;5036714;28;20032;-34
2023/02/18 00:34:00;;;;;;;47.97;14.50;;;;;;;-143.48;100.00;118439.88;5036842;28;20100;-29
2023/02/18 00:36:27;;;;;;;44.20;14.95;;;;;;;-143.48;100.00;118439.88;5036818;28;20033;-29
2023/02/18 00:38:55;;;;;;;45.85;15.00;;;;;;;-143.48;100.00;118439.88;5037134;28;20029;-29
2023/02/18 00:41:22;;;;;;;49.05;17.42;;;;;;;-143.48;100.00;118439.88;5019532;28;20029;-29
2023/02/18 00:43:47;;;;;;;54.00;18.40;;;;;;;-143.48;100.00;118439.88;5036981;28;20028;-29
2023/02/18 00:46:13;;;;;;;56.58;18.92;;;;;;;-143.48;100.00;118439.88;5018561;28;20104;-29
2023/02/18 00:48:39;;;;;;;55.72;19.67;;;;;;;-143.48;100.00;118439.88;5036398;28;20029;-29
2023/02/18 00:51:06;;;;;;;61.67;22.02;;;;;;;-143.48;100.00;118439.88;5036861;28;20032;-28
2023/02/18 00:53:31;;;;;;;55.10;21.58;;;;;;;-143.48;100.00;118439.88;5036513;28;20022;-28
2023/02/18 00:55:57;;;;;;;65.15;23.90;;;;;;;-143.48;100.00;118439.88;5036337;28;20027;-29
2023/02/18 00:58:22;;;;;;;65.97;23.67;;;;;;;-143.48;100.00;118439.88;5036537;28;20029;-28
2023/02/18 01:00:48;;;;;;;63.13;21.40;;;;;;;-143.48;100.00;118439.88;5036448;28;20064;-29
2023/02/18 01:03:14;;;;;;;61.67;22.45;;;;;;;-143.48;100.00;118439.88;5036149;28;20021;-29
2023/02/18 01:05:40;;;;;;;57.33;22.85;;;;;;;-143.48;100.00;118439.88;5036020;28;20036;-29
2023/02/18 01:08:07;;;;;;;53.38;21.95;;;;;;;-143.48;100.00;118439.88;5034824;28;20530;-29
2023/02/18 01:10:34;;;;;;;58.70;22.92;;;;;;;-143.48;100.00;118439.88;5035961;28;20045;-29
2023/02/18 01:13:03;;;;;;;72.78;23.88;;;;;;;-143.48;100.00;118439.88;5035838;28;20021;-28
2023/02/18 01:15:29;;;;;;;56.90;22.65;;;;;;;-143.48;100.00;118439.88;5036077;28;20388;-29
2023/02/18 01:17:54;;;;;;;65.13;24.52;;;;;;;-143.48;100.00;118439.88;5036410;28;20021;-29
2023/02/18 01:20:20;;;;;;;68.28;23.95;;;;;;;-143.48;100.00;118439.88;5035866;28;20029;-29
2023/02/18 01:22:45;;;;;;;72.63;25.92;;;;;;;-143.48;100.00;118439.88;5035845;28;20036;-29
2023/02/18 01:25:11;;;;;;;73.13;25.67;;;;;;;-143.48;100.00;118439.88;5035675;28;20033;-29
2023/02/18 01:27:36;;;;;;;72.93;25.50;;;;;;;-143.48;100.00;118439.88;5036408;28;20464;-29
2023/02/18 01:30:04;;;;;;;62.40;24.60;;;;;;;-143.48;100.00;118439.88;5036246;28;20391;-29
2023/02/18 01:32:29;;;;;;;68.13;25.30;;;;;;;-143.48;100.00;118439.88;5035526;28;20037;-29
2023/02/18 01:34:55;;;;;;;74.50;25.33;;;;;;;-143.48;100.00;118439.88;5035604;28;20029;-29
2023/02/18 01:37:20;;;;;;;71.65;25.40;;;;;;;-143.48;100.00;118439.88;5035825;28;20016;-29
2023/02/18 01:39:45;;;;;;;73.38;25.15;;;;;;;-143.48;100.00;118439.88;5035800;28;20084;-29
2023/02/18 01:42:20;;;;;;;75.95;26.40;;;;;;;-143.48;100.00;118439.88;5035490;28;20026;-29
2023/02/18 01:44:47;;;;;;;83.20;27.90;;;;;;;-143.48;100.00;118439.88;5017723;28;20472;-29
2023/02/18 01:47:14;;;;;;;85.38;28.15;;;;;;;-143.48;100.00;118439.88;5035321;28;20428;-29
2023/02/18 01:49:40;;;;;;;92.38;29.50;;;;;;;-143.48;100.00;118439.88;5017546;28;20021;-29
2023/02/18 01:52:11;;;;;;;90.50;29.55;;;;;;;-143.48;100.00;118439.88;5035640;28;20118;-29
2023/02/18 01:54:44;;;;;;;91.30;29.25;;;;;;;-143.48;100.00;118439.88;5035557;28;20056;-28
2023/02/18 01:57:13;;;;;;;96.45;29.10;;;;;;;-143.48;100.00;118439.88;5017597;28;20025;-29
2023/02/18 01:59:43;;;;;;;95.22;29.95;;;;;;;-143.48;100.00;118439.88;5035158;28;20030;-28
2023/02/18 02:02:13;;;;;;;100.68;30.05;;;;;;;-143.48;100.00;118439.88;5035231;28;20064;-29
2023/02/18 02:04:39;;;;;;;96.38;30.77;;;;;;;-143.48;100.00;118439.88;5035712;28;20083;-28
2023/02/18 02:07:05;;;;;;;98.00;30.30;;;;;;;-143.48;100.00;118439.88;5034960;28;20460;-29
2023/02/18 02:09:31;;;;;;;98.60;30.65;;;;;;;-143.48;100.00;118439.88;5034806;28;20025;-29
2023/02/18 02:12:26;;;;;;;103.85;31.38;;;;;;;-143.48;100.00;118439.88;5034968;28;20033;-29
2023/02/18 02:14:57;;;;;;;112.47;31.30;;;;;;;-143.48;100.00;118439.88;5035232;28;20033;-29
2023/02/18 02:17:35;;;;;;;104.95;30.60;;;;;;;-143.48;100.00;118439.88;5017693;28;20025;-29
2023/02/18 02:20:14;;;;;;;100.82;30.95;;;;;;;-143.48;100.00;118439.88;5034709;28;20025;-29
2023/02/18 02:23:16;;;;;;;99.00;30.55;;;;;;;-143.48;100.00;118439.88;5035050;28;20074;-29
2023/02/18 02:25:51;;;;;;;116.53;30.83;;;;;;;-143.48;100.00;118439.88;5035196;28;20029;-29
2023/02/18 02:28:38;;;;;;;113.45;31.33;;;;;;;-143.48;100.00;118439.88;5034690;28;20029;-29
2023/02/18 02:31:17;;;;;;;110.47;31.92;;;;;;;-143.48;100.00;118439.88;5034888;28;20476;-29
2023/02/18 02:34:04;;;;;;;109.32;29.75;;;;;;;-143.48;100.00;118439.88;5034576;28;20032;-29
2023/02/18 02:36:42;;;;;;;97.97;29.55;;;;;;;-143.48;100.00;118439.88;5035077;28;20067;-28
2023/02/18 02:39:18;;;;;;;113.90;30.88;;;;;;;-143.48;100.00;118439.88;5034705;28;20017;-29
2023/02/18 02:41:53;;;;;;;102.57;27.58;;;;;;;-143.48;100.00;118439.88;5034426;28;20457;-29
2023/02/18 02:44:51;;;;;;;104.60;31.42;;;;;;;-143.48;100.00;118439.88;5034342;28;20079;-29
2023/02/18 02:47:25;;;;;;;98.63;30.05;;;;;;;-143.48;100.00;118439.88;5034264;28;20029;-29
2023/02/18 02:49:59;;;;;;;104.45;30.30;;;;;;;-143.48;100.00;118439.88;5034600;28;20052;-29
2023/02/18 02:52:30;;;;;;;96.22;30.08;;;;;;;-143.48;100.00;118439.88;5034543;28;20022;-29
2023/02/18 02:54:56;;;;;;;94.82;30.38;;;;;;;-143.48;100.00;118439.88;5033940;28;20400;-28
2023/02/18 02:57:21;;;;;;;100.20;30.88;;;;;;;-143.48;100.00;118439.88;5016437;28;20024;-29
2023/02/18 02:59:52;;;;;;;96.03;30.42;;;;;;;-143.48;100.00;118439.88;5034353;28;20029;-29
2023/02/18 03:02:23;;;;;;;94.50;30.63;;;;;;;-143.48;100.00;118439.88;5034008;28;20067;-29
2023/02/18 03:05:29;;;;;;;105.63;29.50;;;;;;;-143.48;100.00;118439.88;5033724;28;20037;-28
2023/02/18 03:08:03;;;;;;;98.55;29.08;;;;;;;-143.48;100.00;118439.88;5031786;28;20026;-29
2023/02/18 03:10:34;;;;;;;103.93;30.42;;;;;;;-143.48;100.00;118439.88;5031691;28;20049;-29
2023/02/18 03:13:21;;;;;;;103.28;30.13;;;;;;;-143.48;100.00;118439.88;5032672;28;20104;-29
2023/02/18 03:15:46;;;;;;;107.35;30.92;;;;;;;-143.48;100.00;118439.88;5032235;28;20033;-29
2023/02/18 03:18:25;;;;;;;101.63;29.52;;;;;;;-143.48;100.00;118439.88;5032360;28;20104;-29
2023/02/18 03:20:55;;;;;;;100.70;31.42;;;;;;;-143.48;100.00;118439.88;5032763;28;20030;-28
2023/02/18 03:23:26;;;;;;;108.53;32.10;;;;;;;-143.48;100.00;118439.88;5034041;28;20021;-29
2023/02/18 03:25:54;;;;;;;105.32;31.38;;;;;;;-143.48;100.00;118439.88;5033609;28;20029;-29
2023/02/18 03:28:21;;;;;;;102.47;31.05;;;;;;;-143.48;100.00;118439.88;5033898;28;20079;-28
2023/02/18 03:30:51;;;;;;;90.00;30.42;;;;;;;-143.48;100.00;118439.88;5032855;28;20602;-29
2023/02/18 03:33:23;;;;;;;91.80;29.98;;;;;;;-143.48;100.00;118439.88;5034170;28;20025;-29
2023/02/18 03:35:49;;;;;;;88.57;29.53;;;;;;;-143.48;100.00;118439.88;5033608;28;20029;-30
2023/02/18 03:38:23;;;;;;;85.88;28.63;;;;;;;-143.48;100.00;118439.88;5033357;28;20108;-29
2023/02/18 03:40:49;;;;;;;79.05;27.90;;;;;;;-143.48;100.00;118439.88;5033479;28;20086;-29
2023/02/18 03:43:14;;;;;;;82.63;29.88;;;;;;;-143.48;100.00;118439.88;5034001;28;20033;-29
2023/02/18 03:45:40;;;;;;;81.25;28.58;;;;;;;-143.48;100.00;118439.88;5033689;28;20037;-29
2023/02/18 03:48:05;;;;;;;87.05;29.08;;;;;;;-143.48;100.00;118439.88;5033596;28;20025;-29
2023/02/18 03:50:31;;;;;;;75.32;25.90;;;;;;;-143.48;100.00;118439.88;5033052;28;20040;-29
2023/02/18 03:52:56;;;;;;;76.00;26.40;;;;;;;-143.48;100.00;118439.88;5032677;28;20102;-29
2023/02/18 03:55:21;;;;;;;66.75;24.42;;;;;;;-143.48;100.00;118439.88;5033721;28;20110;-29
2023/02/18 03:57:47;;;;;;;61.35;22.92;;;;;;;-143.48;100.00;118439.88;5033619;28;20495;-29
2023/02/18 04:00:12;;;;;;;54.28;21.33;;;;;;;-143.48;100.00;118439.88;5033542;28;20137;-29
2023/02/18 04:02:38;;;;;;;46.13;19.73;;;;;;;-143.48;100.00;118439.88;5015651;28;20036;-29
2023/02/18 04:05:03;;;;;;;46.92;18.52;;;;;;;-143.48;100.00;118439.88;5033469;28;20052;-29
2023/02/18 04:07:28;;;;;;;38.13;17.13;;;;;;;-143.48;100.00;118439.88;5033376;28;20379;-29
2023/02/18 04:09:54;;;;;;;35.55;15.85;;;;;;;-143.48;100.00;118439.88;5015652;28;20514;-29
2023/02/18 04:12:19;;;;;;;34.30;15.20;;;;;;;-143.48;100.00;118439.88;5033434;28;20019;-29
2023/02/18 04:14:44;;;;;;;28.08;13.50;;;;;;;-143.48;100.00;118439.88;5033438;28;20060;-29
2023/02/18 04:17:10;;;;;;;27.27;13.27;;;;;;;-143.48;100.00;118439.88;5033053;28;20079;-29
2023/02/18 04:19:35;;;;;;;21.88;11.90;;;;;;;-143.48;100.00;118439.88;5015480;28;20022;-29
2023/02/18 04:22:00;;;;;;;20.48;10.90;;;;;;;-143.48;100.00;118439.88;5033010;28;20498;-29
2023/02/18 04:24:26;;;;;;;18.83;10.98;;;;;;;-143.48;100.00;118439.88;5033391;28;20076;-29
2023/02/18 04:26:51;;;;;;;18.20;10.23;;;;;;;-143.48;100.00;118439.88;5033553;28;20040;-29
2023/02/18 04:29:17;;;;;;;19.50;10.60;;;;;;;-143.48;100.00;118439.88;5033334;28;20075;-29
2023/02/18 04:31:42;;;;;;;17.25;9.80;;;;;;;-143.48;100.00;118439.88;5015700;28;20061;-29
2023/02/18 04:34:07;;;;;;;15.18;9.63;;;;;;;-143.48;100.00;118439.88;5033212;28;20021;-29
2023/02/18 04:36:33;;;;;;;15.25;9.95;;;;;;;-143.48;100.00;118439.88;5033241;28;20025;-28
2023/02/18 04:38:58;;;;;;;17.35;10.45;;;;;;;-143.48;100.00;118439.88;5033192;28;20376;-29
2023/02/18 04:41:24;;;;;;;16.63;9.95;;;;;;;-143.48;100.00;118439.88;5033225;28;20022;-29
2023/02/18 04:43:49;;;;;;;13.88;9.70;;;;;;;-143.48;100.00;118439.88;5036543;28;20438;-29
2023/02/18 04:46:14;;;;;;;15.90;9.77;;;;;;;-143.48;100.00;118439.88;5036816;28;20025;-29
2023/02/18 04:48:40;;;;;;;16.33;10.23;;;;;;;-143.48;100.00;118439.88;5036483;28;20507;-28
2023/02/18 04:51:06;;;;;;;15.90;9.70;;;;;;;-143.48;100.00;118439.88;5036520;28;20112;-29
2023/02/18 04:53:31;;;;;;;15.50;9.77;;;;;;;-143.48;100.00;118439.88;5036742;28;20028;-29
2023/02/18 04:55:57;;;;;;;16.02;9.68;;;;;;;-143.48;100.00;118439.88;5036391;28;20460;-29
2023/02/18 04:58:22;;;;;;;15.15;9.50;;;;;;;-143.48;100.00;118439.88;5036338;28;20029;-29
2023/02/18 05:00:47;;;;;;;17.25;10.25;;;;;;;-143.48;100.00;118439.88;5036856;28;20074;-29
2023/02/18 05:03:13;;;;;;;16.45;9.52;;;;;;;-143.48;100.00;118439.88;5036285;28;20028;-29
2023/02/18 05:05:38;;;;;;;15.82;10.60;;;;;;;-143.48;100.00;118439.88;5036454;28;20033;-29
2023/02/18 05:08:04;;;;;;;19.20;10.02;;;;;;;-143.48;100.00;118439.88;5036452;28;20357;-28
2023/02/18 05:10:29;;;;;;;18.98;10.35;;;;;;;-143.48;100.00;118439.88;5036166;28;20056;-29
2023/02/18 05:12:55;;;;;;;20.60;11.88;;;;;;;-143.48;100.00;118439.88;5036119;28;20033;-29
2023/02/18 05:15:20;;;;;;;18.60;11.38;;;;;;;-143.48;100.00;118439.88;5036075;28;20083;-29
2023/02/18 05:17:45;;;;;;;21.15;11.68;;;;;;;-143.48;100.00;118439.88;5035931;28;20495;-29
2023/02/18 05:20:11;;;;;;;22.83;11.43;;;;;;;-143.48;100.00;118439.88;5036048;28;20021;-29
2023/02/18 05:22:36;;;;;;;22.10;11.50;;;;;;;-143.48;100.00;118439.88;5036013;28;20045;-29
2023/02/18 05:25:02;;;;;;;18.90;11.50;;;;;;;-143.48;100.00;118439.88;5035832;28;20040;-29
2023/02/18 05:27:27;;;;;;;20.10;11.32;;;;;;;-143.48;100.00;118439.88;5035625;28;20061;-29
2023/02/18 05:29:52;;;;;;;18.50;10.10;;;;;;;-143.48;100.00;118439.88;5036455;28;20532;-29
2023/02/18 05:32:18;;;;;;;21.48;11.60;;;;;;;-143.48;100.00;118439.88;5018117;28;20037;-29
2023/02/18 05:34:43;;;;;;;20.15;11.80;;;;;;;-143.48;100.00;118439.88;5036048;28;20064;-29
2023/02/18 05:37:09;;;;;;;22.60;12.63;;;;;;;-143.48;100.00;118439.88;5035765;28;20049;-29
2023/02/18 05:39:34;;;;;;;23.38;12.15;;;;;;;-143.48;100.00;118439.88;5036386;28;20021;-29
2023/02/18 05:41:59;;;;;;;24.70;12.18;;;;;;;-143.48;100.00;118439.88;5035929;28;20026;-29
2023/02/18 05:44:31;;;;;;;25.55;13.32;;;;;;;-143.48;100.00;118439.88;5035593;28;20036;-29
2023/02/18 05:47:06;;;;;;;28.08;13.90;;;;;;;-143.48;100.00;118439.88;5035743;28;20055;-29
2023/02/18 05:49:33;;;;;;;23.88;12.80;;;;;;;-143.48;100.00;118439.88;5035478;28;20025;-29
2023/02/18 05:51:59;;;;;;;28.98;13.80;;;;;;;-143.48;100.00;118439.88;5035382;28;20101;-29
2023/02/18 05:54:25;;;;;;;26.50;14.15;;;;;;;-143.48;100.00;118439.88;5016957;28;20395;-28
2023/02/18 05:56:51;;;;;;;29.50;14.27;;;;;;;-143.48;100.00;118439.88;5035331;28;20018;-29
2023/02/18 05:59:17;;;;;;;28.77;13.90;;;;;;;-143.48;100.00;118439.88;5035225;28;20033;-29
2023/02/18 06:01:43;;;;;;;26.42;13.68;;;;;;;-143.48;100.00;118439.88;5035199;28;20040;-29
2023/02/18 06:04:08;;;;;;;21.30;13.38;;;;;;;-143.48;100.00;118439.88;5035223;28;20039;-30
2023/02/18 06:06:34;;;;;;;25.70;13.82;;;;;;;-143.48;100.00;118439.88;5034921;28;20025;-29
2023/02/18 06:09:00;;;;;;;24.73;12.93;;;;;;;-143.48;100.00;118439.88;5035660;28;20032;-29
2023/02/18 06:11:25;;;;;;;22.65;13.57;;;;;;;-143.48;100.00;118439.88;5013531;28;20053;-29
2023/02/18 06:13:50;;;;;;;27.30;13.43;;;;;;;-143.48;100.00;118439.88;5013484;28;20026;-29
2023/02/18 06:16:16;;;;;;;25.13;12.55;;;;;;;-143.48;100.00;118439.88;5013392;28;20083;-29
2023/02/18 06:18:41;;;;;;;22.33;12.60;;;;;;;-143.48;100.00;118439.88;5013452;28;20044;-29
2023/02/18 06:21:06;;;;;;;21.90;12.50;;;;;;;-143.48;100.00;118439.88;5013429;28;20113;-29
2023/02/18 06:23:31;;;;;;;25.35;12.48;;;;;;;-143.48;100.00;118439.88;5013367;28;20171;-29
2023/02/18 06:25:57;;;;;;;21.13;12.25;;;;;;;-143.48;100.00;118439.88;5011903;28;20029;-29
2023/02/18 06:28:22;;;;;;;24.77;12.23;;;;;;;-143.48;100.00;118439.88;5014854;28;20032;-29
2023/02/18 06:30:48;;;;;;;17.95;11.05;;;;;;;-143.48;100.00;118439.88;5014935;28;20400;-29
2023/02/18 06:33:13;;;;;;;19.17;12.05;;;;;;;-143.48;100.00;118439.88;5015130;28;20025;-29
2023/02/18 06:35:39;;;;;;;20.58;11.75;;;;;;;-143.48;100.00;118439.88;5014864;28;20025;-29
2023/02/18 06:38:05;;;;;;;20.95;11.57;;;;;;;-143.48;100.00;118439.88;5014766;28;20018;-29
2023/02/18 06:40:30;;;;;;;20.52;11.80;;;;;;;-143.48;100.00;118439.88;5014744;28;20550;-29
2023/02/18 06:42:56;;;;;;;22.00;11.25;;;;;;;-143.48;100.00;118439.88;5014963;28;20022;-29
2023/02/18 06:45:21;;;;;;;22.30;10.93;;;;;;;-143.48;100.00;118439.88;5014930;28;20112;-29
2023/02/18 06:47:47;;;;;;;21.77;11.13;;;;;;;-143.48;100.00;118439.88;5014868;28;20036;-29
2023/02/18 06:50:13;;;;;;;24.48;12.00;;;;;;;-143.48;100.00;118439.88;5014820;28;20026;-29
2023/02/18 06:52:38;;;;;;;23.15;11.30;;;;;;;-143.48;100.00;118439.88;5015076;28;20037;-29
2023/02/18 06:55:05;;;;;;;24.75;11.20;;;;;;;-143.48;100.00;118439.88;5014714;28;20472;-29
2023/02/18 06:57:30;;;;;;;21.52;11.32;;;;;;;-143.48;100.00;118439.88;5014470;28;20108;-33
2023/02/18 06:59:56;;;;;;;24.55;11.98;;;;;;;-143.48;100.00;118439.88;5014544;28;20392;-29
2023/02/18 07:02:21;;;;;;;26.60;11.65;;;;;;;-143.48;100.00;118439.88;5013394;28;20531;-29
2023/02/18 07:04:46;;;;;;;22.92;11.32;;;;;;;-143.48;100.00;118439.88;5014731;28;20030;-28
2023/02/18 07:07:12;;;;;;;25.08;11.45;;;;;;;-143.48;100.00;118439.88;5014626;28;20449;-29
2023/02/18 07:09:37;;;;;;;18.90;10.18;;;;;;;-143.48;100.00;118439.88;5016971;28;20049;-29
2023/02/18 07:12:03;;;;;;;23.20;10.77;;;;;;;-143.48;100.00;118439.88;5034179;28;20022;-30
2023/02/18 07:14:28;;;;;;;20.95;9.35;;;;;;;-143.48;100.00;118439.88;5034134;28;20026;-31
2023/02/18 07:16:54;;;;;;;22.40;9.88;;;;;;;-143.48;100.00;118439.88;5016211;28;20025;-31
2023/02/18 07:19:20;;;;;;;18.83;9.23;;;;;;;-143.48;100.00;118439.88;5016067;28;20033;-31
2023/02/18 07:21:45;;;;;;;21.20;9.48;;;;;;;-143.48;100.00;118439.88;5015639;28;20033;-30
2023/02/18 07:24:10;;;;;;;24.48;9.05;;;;;;;-143.48;100.00;118439.88;5034030;28;20071;-30
2023/02/18 07:26:36;;;;;;;17.20;7.72;;;;;;;-143.48;100.00;118439.88;5033613;28;20060;-30
2023/02/18 07:29:01;;;;;;;23.35;8.60;;;;;;;-143.48;100.00;118439.88;5033946;28;20034;-30
2023/02/18 07:31:26;;;;;;;24.60;8.85;;;;;;;-143.48;100.00;118439.88;5033949;28;20022;-30
2023/02/18 07:33:52;;;;;;;25.55;8.60;;;;;;;-143.48;100.00;118439.88;5033869;28;20456;-31
2023/02/18 07:36:20;;;;;;;23.98;9.73;;;;;;;-143.48;100.00;118439.88;5033682;28;20021;-31
2023/02/18 07:38:45;;;;;;;26.67;8.32;;;;;;;-143.48;100.00;118439.88;5033460;28;20025;-31
2023/02/18 07:41:22;;;;;;;20.55;8.30;;;;;;;-143.48;100.00;118439.88;5015809;28;20026;-29
2023/02/18 07:43:48;;;;;;;28.48;8.15;;;;;;;-143.48;100.00;118439.88;5033529;28;20086;-30
2023/02/18 07:46:13;;;;;;;24.05;7.57;;;;;;;-143.48;100.00;118439.88;5033233;28;20024;-29
2023/02/18 07:48:39;;;;;;;27.42;6.35;;;;;;;-143.48;100.00;118439.88;5033535;28;20029;-29
2023/02/18 07:51:06;;;;;;;23.85;6.13;;;;;;;-143.48;100.00;118439.88;5033488;28;20032;-32
2023/02/18 07:53:31;;;;;;;22.42;5.53;;;;;;;-143.48;100.00;118439.88;5033474;28;20034;-30
2023/02/18 07:56:00;;;;;;;22.63;5.85;;;;;;;-143.48;100.00;118439.88;5033445;28;20026;-30
2023/02/18 07:58:29;;;;;;;26.33;5.55;;;;;;;-143.48;100.00;118439.88;5015485;28;20036;-30
2023/02/18 08:00:55;;;;;;;21.90;4.82;;;;;;;-143.48;100.00;118439.88;5015948;28;20072;-30
2023/02/18 08:03:29;;;;;;;26.63;4.55;;;;;;;-143.48;100.00;118439.88;5033661;28;20038;-33
2023/02/18 08:05:56;;;;;;;17.08;3.78;;;;;;;-143.48;100.00;118439.88;5033232;28;20034;-30
2023/02/18 08:08:25;;;;;;;26.00;4.78;;;;;;;-143.48;100.00;118439.88;5033700;28;20467;-30
2023/02/18 08:10:52;;;;;;;14.63;3.42;;;;;;;-143.48;100.00;118439.88;5033040;28;20053;-31
2023/02/18 08:13:18;;;;;;;18.85;3.55;;;;;;;-143.48;100.00;118439.88;5033237;28;20017;-30
2023/02/18 08:15:43;;;;;;;16.48;3.38;;;;;;;-143.48;100.00;118439.88;5033097;28;20030;-31
2023/02/18 08:18:16;;;;;;;21.45;3.88;;;;;;;-143.48;100.00;118439.88;5036509;28;20024;-30
2023/02/18 08:20:41;;;;;;;23.88;3.15;;;;;;;-143.48;100.00;118439.88;5037188;28;20051;-30
2023/02/18 08:23:06;;;;;;;21.40;3.55;;;;;;;-143.48;100.00;118439.88;5035689;28;20025;-30
2023/02/18 08:25:32;;;;;;;32.03;3.67;;;;;;;-143.48;100.00;118439.88;5034884;28;20025;-30
2023/02/18 08:27:58;;;;;;;21.95;3.58;;;;;;;-143.48;100.00;118439.88;5034594;28;20026;-29
2023/02/18 08:30:25;;;;;;;21.50;3.72;;;;;;;-143.48;100.00;118439.88;5034627;28;20036;-30
2023/02/18 08:32:51;;;;;;;22.23;3.13;;;;;;;-143.48;100.00;118439.88;5034653;28;20060;-30
2023/02/18 08:35:16;;;;;;;33.20;3.50;;;;;;;-143.48;100.00;118439.88;5034380;28;20071;-30
2023/02/18 08:37:42;;;;;;;23.88;3.63;;;;;;;-143.48;100.00;118439.88;5033425;28;20025;-30
2023/02/18 08:40:11;;;;;;;24.98;3.58;;;;;;;-143.48;100.00;118439.88;5034165;28;20088;-30
2023/02/18 08:42:36;;;;;;;19.92;3.40;;;;;;;-143.48;99.99;118439.88;5034390;28;20472;-29
2023/02/18 08:45:02;;;;;;;25.50;3.35;;;;;;;-143.48;99.68;118439.88;5034779;28;20113;-29
2023/02/18 08:47:27;;;;;;;23.45;3.10;;;;;;;-143.48;99.27;118439.88;5034350;28;20478;-30
2023/02/18 08:49:53;;;;;;;23.27;4.25;;;;;;;-143.48;99.41;118439.88;5034569;28;20022;-30
2023/02/18 08:52:18;;;;;;;25.83;3.70;;;;;;;-143.48;99.24;118439.88;5034504;28;20057;-30
2023/02/18 08:54:44;;;;;;;26.63;3.05;;;;;;;-143.48;99.05;118439.88;5034624;28;20036;-30
2023/02/18 08:57:09;;;;;;;23.73;3.42;;;;;;;-143.48;97.83;118439.88;5034112;28;20036;-30
2023/02/18 08:59:34;;;;;;;18.02;3.20;;;;;;;-143.48;97.42;118439.88;5034295;28;20028;-30
2023/02/18 09:02:00;;;;;;;19.77;2.90;;;;;;;-143.48;96.89;118439.88;5034002;28;20112;-30
2023/02/18 09:04:25;;;;;;;21.52;3.08;;;;;;;-143.48;96.79;118439.88;5032718;28;20468;-30
2023/02/18 09:06:50;;;;;;;18.02;3.25;;;;;;;-143.48;96.42;118439.88;5033238;28;20021;-30
2023/02/18 09:09:16;;;;;;;20.20;3.10;;;;;;;-143.48;95.66;118439.88;5035442;28;20120;-30
2023/02/18 09:11:42;;;;;;;19.52;3.33;;;;;;;-143.48;96.67;118439.88;5035355;28;20053;-30
2023/02/18 09:14:07;;;;;;;20.17;3.00;;;;;;;-143.48;96.02;118439.88;5035381;28;20029;-31
2023/02/18 09:16:33;;;;;;;21.95;3.70;;;;;;;-143.48;96.83;118439.88;5035547;28;20017;-30
2023/02/18 09:18:58;;;;;;;26.33;3.28;;;;;;;-143.48;95.52;118439.88;5035486;28;20017;-30
2023/02/18 09:21:26;;;;;;;20.38;3.20;;;;;;;-143.48;95.67;118439.88;5035952;28;20025;-30
2023/02/18 09:23:51;;;;;;;17.58;3.03;;;;;;;-143.48;95.59;118439.88;5035710;28;20032;-30
2023/02/18 09:26:23;;;;;;;19.27;3.20;;;;;;;-143.48;95.21;118439.88;5035559;28;20025;-31
2023/02/18 09:28:49;;;;;;;19.38;2.60;;;;;;;-143.48;94.62;118439.88;5034436;28;20025;-30
2023/02/18 09:31:17;;;;;;;22.10;3.10;;;;;;;-143.48;94.05;118439.88;5035509;28;20096;-30
2023/02/18 09:34:02;;;;;;;18.65;3.55;;;;;;;-143.48;95.12;118439.88;5035621;28;20484;-30
2023/02/18 09:36:28;;;;;;;20.38;3.40;;;;;;;-143.48;94.77;118439.88;5035194;28;20013;-30
2023/02/18 09:38:54;;;;;;;23.60;3.40;;;;;;;-143.48;94.43;118439.88;5035254;28;20441;-30
2023/02/18 09:41:36;;;;;;;25.80;3.60;;;;;;;-143.48;94.20;118439.88;5035159;28;20411;-30
2023/02/18 09:44:12;;;;;;;20.35;2.72;;;;;;;-143.48;94.46;118439.88;5035540;28;20032;-30
2023/02/18 09:46:48;;;;;;;15.77;3.20;;;;;;;-143.48;93.54;118439.88;5035080;28;20025;-30
2023/02/18 09:49:30;;;;;;;20.02;3.28;;;;;;;-143.48;93.07;118439.88;5035360;28;20033;-29
2023/02/18 09:52:02;;;;;;;16.15;2.78;;;;;;;-143.48;93.58;118439.88;5035077;28;20508;-29
2023/02/18 09:54:27;;;;;;;21.50;3.63;;;;;;;-143.48;93.03;118439.88;5035266;28;20079;-30
2023/02/18 09:56:53;;;;;;;16.65;3.35;;;;;;;-143.48;93.05;118439.88;5034998;28;20029;-30
2023/02/18 09:59:22;;;;;;;29.23;6.25;;;;;;;-143.48;93.14;118439.88;5035139;28;20025;-30
2023/02/18 10:01:51;;;;;;;20.15;4.47;;;;;;;-143.48;92.94;118439.88;5034985;28;20017;-29
2023/02/18 10:04:39;;;;;;;18.85;3.25;;;;;;;-143.48;93.27;118439.88;5035023;28;20365;-29
2023/02/18 10:07:09;;;;;;;19.00;3.30;;;;;;;-143.48;92.69;118439.88;5032266;28;20028;-30
2023/02/18 10:09:36;;;;;;;24.80;3.53;;;;;;;-143.48;92.72;118439.88;5032150;28;20022;-31
2023/02/18 10:12:12;;;;;;;19.75;2.90;;;;;;;-143.48;92.88;118439.88;5032202;28;20100;-29
2023/02/18 10:14:37;;;;;;;19.05;3.33;;;;;;;-143.48;93.25;118439.88;5032349;28;20133;-29
2023/02/18 10:17:03;;;;;;;25.25;6.38;;;;;;;-143.48;92.50;118439.88;5032485;28;20383;-29
2023/02/18 10:19:35;;;;;;;21.67;3.67;;;;;;;-143.48;91.49;118439.88;5032621;28;20029;-30
2023/02/18 10:22:04;;;;;;;21.00;3.33;;;;;;;-143.48;91.58;118439.88;5035072;28;20091;-29
2023/02/18 10:24:46;;;;;;;20.33;3.03;;;;;;;-143.48;93.32;118439.88;5034617;28;20108;-29
2023/02/18 10:27:20;;;;;;;17.37;3.00;;;;;;;-143.48;92.35;118439.88;5016622;28;20022;-30
2023/02/18 10:29:47;;;;;;;20.00;3.30;;;;;;;-143.48;91.81;118439.88;5035186;28;20120;-29
2023/02/18 10:32:18;;;;;;;20.38;2.72;;;;;;;-143.48;91.54;118439.88;5016404;28;20433;-30
2023/02/18 10:34:51;;;;;;;16.45;2.78;;;;;;;-143.48;90.21;118439.88;5033958;28;20079;-30
2023/02/18 10:37:25;;;;;;;26.02;3.45;;;;;;;-143.48;91.30;118439.88;5034529;28;20056;-29
2023/02/18 10:40:05;;;;;;;18.58;2.30;;;;;;;-143.48;90.28;118439.88;5034310;28;20057;-30
2023/02/18 10:42:54;;;;;;;16.65;2.53;;;;;;;-143.48;89.74;118439.88;5034385;28;20415;-29
2023/02/18 10:45:45;;;;;;;14.90;3.30;;;;;;;-143.48;87.26;118439.88;5034054;28;20026;-30
2023/02/18 10:48:25;;;;;;;14.95;2.72;;;;;;;-143.48;86.74;118439.88;5034071;28;20028;-30
2023/02/18 10:50:51;;;;;;;17.52;2.85;;;;;;;-143.48;88.38;118439.88;5034202;28;20049;-30
2023/02/18 10:53:33;;;;;;;13.60;3.10;;;;;;;-143.48;88.73;118439.88;5033882;28;20029;-30
2023/02/18 10:55:58;;;;;;;17.13;3.00;;;;;;;-143.48;87.54;118439.88;5034190;28;20025;-29